sensor_id;sensor_type;location;lat;lon;timestamp;pressure;altitude;pressure_sealevel;temperature;humidity
53699;BME280;39591;53.952;27.612;2023-02-15T00:01:19;1024.6;;;-0.2;60
53699;BME280;39591;53.952;27.612;2023-02-15T00:06:37;1024.6;;;-0.3;60
53699;BME280;39591;53.952;27.612;2023-02-15T00:11:21;1024.6;;;-0.2;59.8
53699;BME280;39591;53.952;27.612;2023-02-15T00:16:31;1024.6;;;-0.1;59.7
53699;BME280;39591;53.952;27.612;2023-02-15T00:21:32;1024.6;;;0.1;59.5
53699;BME280;39591;53.952;27.612;2023-02-15T00:26:19;1024.7;;;0.1;59.3
53699;BME280;39591;53.952;27.612;2023-02-15T00:31:53;1024.8;;;0.1;59.3
53699;BME280;39591;53.952;27.612;2023-02-15T00:36:51;1024.8;;;0;59.4
53699;BME280;39591;53.952;27.612;2023-02-15T00:41:27;1024.8;;;0.1;59.4
53699;BME280;39591;53.952;27.612;2023-02-15T00:46:53;1024.8;;;0.2;59.2
53699;BME280;39591;53.952;27.612;2023-02-15T00:51:53;1024.8;;;0.3;59.1
53699;BME280;39591;53.952;27.612;2023-02-15T00:56:31;1024.9;;;0.3;59
53699;BME280;39591;53.952;27.612;2023-02-15T01:01:08;1024.9;;;0.4;59
53699;BME280;39591;53.952;27.612;2023-02-15T01:06:53;1024.9;;;0.5;58.8
53699;BME280;39591;53.952;27.612;2023-02-15T01:11:08;1024.9;;;0.5;58.7
53699;BME280;39591;53.952;27.612;2023-02-15T01:16:39;1024.9;;;0.6;58.5
53699;BME280;39591;53.952;27.612;2023-02-15T01:21:20;1024.9;;;0.6;58.4
53699;BME280;39591;53.952;27.612;2023-02-15T01:26:41;1024.8;;;0.6;58.4
53699;BME280;39591;53.952;27.612;2023-02-15T01:31:43;1024.8;;;0.6;58.6
53699;BME280;39591;53.952;27.612;2023-02-15T01:36:37;1024.8;;;0.7;58.6
53699;BME280;39591;53.952;27.612;2023-02-15T01:41:53;1024.8;;;0.8;58.5
53699;BME280;39591;53.952;27.612;2023-02-15T01:46:07;1024.9;;;0.8;58.5
53699;BME280;39591;53.952;27.612;2023-02-15T01:51:16;1024.9;;;0.7;58.7
53699;BME280;39591;53.952;27.612;2023-02-15T01:56:09;1024.9;;;0.8;59
53699;BME280;39591;53.952;27.612;2023-02-15T02:01:43;1025;;;0.7;59.3
53699;BME280;39591;53.952;27.612;2023-02-15T02:06:07;1025;;;0.7;59.4
53699;BME280;39591;53.952;27.612;2023-02-15T02:11:09;1025;;;0.6;59.6
53699;BME280;39591;53.952;27.612;2023-02-15T02:16:42;1025;;;0.5;59.8
53699;BME280;39591;53.952;27.612;2023-02-15T02:21:48;1025;;;0.5;60
53699;BME280;39591;53.952;27.612;2023-02-15T02:26:52;1025.1;;;0.5;60.2
53699;BME280;39591;53.952;27.612;2023-02-15T02:31:31;1025.1;;;0.4;60.4
53699;BME280;39591;53.952;27.612;2023-02-15T02:36:55;1025.1;;;0.4;60.6
53699;BME280;39591;53.952;27.612;2023-02-15T02:41:28;1025.2;;;0.4;60.7
53699;BME280;39591;53.952;27.612;2023-02-15T02:46:46;1025.2;;;0.4;60.8
53699;BME280;39591;53.952;27.612;2023-02-15T02:51:07;1025.2;;;0.4;61
53699;BME280;39591;53.952;27.612;2023-02-15T02:56:46;1025.1;;;0.4;60.9
53699;BME280;39591;53.952;27.612;2023-02-15T03:01:22;1025.1;;;0.4;60.8
53699;BME280;39591;53.952;27.612;2023-02-15T03:06:33;1025.1;;;0.4;60.8
53699;BME280;39591;53.952;27.612;2023-02-15T03:11:40;1025.1;;;0.5;60.8
53699;BME280;39591;53.952;27.612;2023-02-15T03:16:07;1025;;;0.5;60.7
53699;BME280;39591;53.952;27.612;2023-02-15T03:21:56;1025.1;;;0.5;60.6
53699;BME280;39591;53.952;27.612;2023-02-15T03:26:29;1025.1;;;0.5;60.7
53699;BME280;39591;53.952;27.612;2023-02-15T03:31:54;1025.1;;;0.5;60.7
53699;BME280;39591;53.952;27.612;2023-02-15T03:36:34;1025.2;;;0.5;60.8
53699;BME280;39591;53.952;27.612;2023-02-15T03:41:40;1025.2;;;0.4;60.7
53699;BME280;39591;53.952;27.612;2023-02-15T03:46:08;1025.2;;;0.4;60.8
53699;BME280;39591;53.952;27.612;2023-02-15T03:51:44;1025.2;;;0.4;60.9
53699;BME280;39591;53.952;27.612;2023-02-15T03:56:19;1025.2;;;0.5;61
53699;BME280;39591;53.952;27.612;2023-02-15T04:01:38;1025.2;;;0.4;61.2
53699;BME280;39591;53.952;27.612;2023-02-15T04:06:37;1025.2;;;0.5;61.2
53699;BME280;39591;53.952;27.612;2023-02-15T04:11:51;1025.1;;;0.6;60.9
53699;BME280;39591;53.952;27.612;2023-02-15T04:16:53;1025.1;;;0.6;60.8
53699;BME280;39591;53.952;27.612;2023-02-15T04:21:39;1025;;;0.6;60.8
53699;BME280;39591;53.952;27.612;2023-02-15T04:26:51;1025;;;0.7;60.8
53699;BME280;39591;53.952;27.612;2023-02-15T04:31:07;1025;;;0.7;60.9
53699;BME280;39591;53.952;27.612;2023-02-15T04:36:19;1025;;;0.8;60.7
53699;BME280;39591;53.952;27.612;2023-02-15T04:41:43;1025;;;0.8;60.6
53699;BME280;39591;53.952;27.612;2023-02-15T04:46:45;1025.1;;;0.9;60.5
53699;BME280;39591;53.952;27.612;2023-02-15T04:51:33;1025.1;;;1;60.4
53699;BME280;39591;53.952;27.612;2023-02-15T04:56:53;1025.1;;;0.9;60.4
53699;BME280;39591;53.952;27.612;2023-02-15T05:01:31;1025;;;1;60.4
53699;BME280;39591;53.952;27.612;2023-02-15T05:06:53;1025;;;0.9;60.3
53699;BME280;39591;53.952;27.612;2023-02-15T05:11:41;1024.9;;;1;60.4
53699;BME280;39591;53.952;27.612;2023-02-15T05:16:31;1024.9;;;1;60.4
53699;BME280;39591;53.952;27.612;2023-02-15T05:21:31;1024.9;;;1;60.3
53699;BME280;39591;53.952;27.612;2023-02-15T05:26:08;1024.9;;;1;60.4
53699;BME280;39591;53.952;27.612;2023-02-15T05:31:19;1024.9;;;1;60.3
53699;BME280;39591;53.952;27.612;2023-02-15T05:36:19;1024.9;;;1;60.3
53699;BME280;39591;53.952;27.612;2023-02-15T05:41:37;1024.9;;;1.1;60.3
53699;BME280;39591;53.952;27.612;2023-02-15T05:46:33;1024.9;;;1.1;60.2
53699;BME280;39591;53.952;27.612;2023-02-15T05:51:51;1024.9;;;1.1;60
53699;BME280;39591;53.952;27.612;2023-02-15T05:56:19;1025;;;1.3;59.8
53699;BME280;39591;53.952;27.612;2023-02-15T06:01:39;1025;;;1.4;59.5
53699;BME280;39591;53.952;27.612;2023-02-15T06:06:45;1025;;;1.5;59.2
53699;BME280;39591;53.952;27.612;2023-02-15T06:11:19;1025;;;1.6;59.1
53699;BME280;39591;53.952;27.612;2023-02-15T06:16:31;1025;;;1.7;58.7
53699;BME280;39591;53.952;27.612;2023-02-15T06:21:33;1025;;;1.7;58.6
53699;BME280;39591;53.952;27.612;2023-02-15T06:26:55;1025.1;;;1.7;58.4
53699;BME280;39591;53.952;27.612;2023-02-15T06:31:23;1025.1;;;1.8;58.1
53699;BME280;39591;53.952;27.612;2023-02-15T06:36:25;1025;;;1.9;57.8
53699;BME280;39591;53.952;27.612;2023-02-15T06:41:07;1025;;;2;57.5
53699;BME280;39591;53.952;27.612;2023-02-15T06:46:55;1025;;;2.1;57.5
53699;BME280;39591;53.952;27.612;2023-02-15T06:51:31;1025;;;2.3;57.1
53699;BME280;39591;53.952;27.612;2023-02-15T06:56:39;1025;;;2.3;57.2
53699;BME280;39591;53.952;27.612;2023-02-15T07:01:31;1025;;;2.4;57.1
53699;BME280;39591;53.952;27.612;2023-02-15T07:06:07;1025.1;;;2.5;56.8
53699;BME280;39591;53.952;27.612;2023-02-15T07:11:31;1025;;;2.6;56.4
53699;BME280;39591;53.952;27.612;2023-02-15T07:16:07;1025;;;2.5;56.1
53699;BME280;39591;53.952;27.612;2023-02-15T07:21:51;1024.9;;;2.5;56.2
53699;BME280;39591;53.952;27.612;2023-02-15T07:26:47;1025;;;2.7;56.1
53699;BME280;39591;53.952;27.612;2023-02-15T07:31:27;1025.1;;;2.7;55.3
53699;BME280;39591;53.952;27.612;2023-02-15T07:36:53;1025.1;;;2.8;55.2
53699;BME280;39591;53.952;27.612;2023-02-15T07:41:51;1025.1;;;2.9;55.3
53699;BME280;39591;53.952;27.612;2023-02-15T07:46:31;1025.1;;;3.1;54.9
53699;BME280;39591;53.952;27.612;2023-02-15T07:51:15;1025.1;;;3.1;54.4
53699;BME280;39591;53.952;27.612;2023-02-15T07:56:45;1025.1;;;3.2;54.3
53699;BME280;39591;53.952;27.612;2023-02-15T08:01:07;1025.1;;;3.3;54.3
53699;BME280;39591;53.952;27.612;2023-02-15T08:06:17;1025;;;3.3;54
53699;BME280;39591;53.952;27.612;2023-02-15T08:11:32;1025;;;3.4;54
53699;BME280;39591;53.952;27.612;2023-02-15T08:16:40;1025;;;3.4;53.8
53699;BME280;39591;53.952;27.612;2023-02-15T08:21:44;1024.9;;;3.5;53.8
53699;BME280;39591;53.952;27.612;2023-02-15T08:26:42;1024.9;;;3.7;53.4
53699;BME280;39591;53.952;27.612;2023-02-15T08:31:49;1024.9;;;3.9;53
53699;BME280;39591;53.952;27.612;2023-02-15T08:36:20;1025;;;4;52.2
53699;BME280;39591;53.952;27.612;2023-02-15T08:41:44;1025;;;4;52.1
53699;BME280;39591;53.952;27.612;2023-02-15T08:46:42;1025;;;4.1;51.9
53699;BME280;39591;53.952;27.612;2023-02-15T08:51:45;1024.9;;;4.1;51.5
53699;BME280;39591;53.952;27.612;2023-02-15T08:56:16;1024.9;;;4.2;51.5
53699;BME280;39591;53.952;27.612;2023-02-15T09:01:30;1024.9;;;4.3;51.2
53699;BME280;39591;53.952;27.612;2023-02-15T09:06:27;1024.9;;;4.3;51.2
53699;BME280;39591;53.952;27.612;2023-02-15T09:11:30;1024.9;;;4.3;50.9
53699;BME280;39591;53.952;27.612;2023-02-15T09:16:53;1024.9;;;4.3;50.8
53699;BME280;39591;53.952;27.612;2023-02-15T09:21:08;1024.8;;;4.4;50.6
53699;BME280;39591;53.952;27.612;2023-02-15T09:26:51;1024.8;;;4.5;50.5
53699;BME280;39591;53.952;27.612;2023-02-15T09:31:21;1024.8;;;4.7;50
53699;BME280;39591;53.952;27.612;2023-02-15T09:36:41;1024.7;;;4.8;49.7
53699;BME280;39591;53.952;27.612;2023-02-15T09:41:12;1024.8;;;5;49.5
53699;BME280;39591;53.952;27.612;2023-02-15T09:46:51;1024.8;;;5.2;48.8
53699;BME280;39591;53.952;27.612;2023-02-15T09:51:23;1024.8;;;5.3;48.4
53699;BME280;39591;53.952;27.612;2023-02-15T09:56:10;1024.8;;;5.4;48
53699;BME280;39591;53.952;27.612;2023-02-15T10:01:43;1024.7;;;5.4;47.8
53699;BME280;39591;53.952;27.612;2023-02-15T10:06:49;1024.6;;;5.5;48
53699;BME280;39591;53.952;27.612;2023-02-15T10:11:59;1024.5;;;5.6;47.6
53699;BME280;39591;53.952;27.612;2023-02-15T10:16:42;1024.5;;;5.6;47.5
53699;BME280;39591;53.952;27.612;2023-02-15T10:21:58;1024.4;;;5.6;47.7
53699;BME280;39591;53.952;27.612;2023-02-15T10:26:09;1024.4;;;5.7;47.1
53699;BME280;39591;53.952;27.612;2023-02-15T10:31:42;1024.3;;;5.8;46.7
53699;BME280;39591;53.952;27.612;2023-02-15T10:36:11;1024.3;;;5.8;46.6
53699;BME280;39591;53.952;27.612;2023-02-15T10:41:46;1024.3;;;5.8;46.5
53699;BME280;39591;53.952;27.612;2023-02-15T10:46:25;1024.3;;;5.8;46.2
53699;BME280;39591;53.952;27.612;2023-02-15T10:51:34;1024.3;;;5.9;45.7
53699;BME280;39591;53.952;27.612;2023-02-15T10:56:45;1024.3;;;6;45.8
53699;BME280;39591;53.952;27.612;2023-02-15T11:01:56;1024.3;;;6;45.3
53699;BME280;39591;53.952;27.612;2023-02-15T11:06:56;1024.3;;;6;45.2
53699;BME280;39591;53.952;27.612;2023-02-15T11:11:41;1024.2;;;6;44.7
53699;BME280;39591;53.952;27.612;2023-02-15T11:16:57;1024.2;;;5.9;44.7
53699;BME280;39591;53.952;27.612;2023-02-15T11:21:20;1024.2;;;5.9;44.5
53699;BME280;39591;53.952;27.612;2023-02-15T11:26:42;1024.2;;;6;44.5
53699;BME280;39591;53.952;27.612;2023-02-15T11:31:34;1024.2;;;6;43.9
53699;BME280;39591;53.952;27.612;2023-02-15T11:36:43;1024.1;;;6;44
53699;BME280;39591;53.952;27.612;2023-02-15T11:41:34;1024.1;;;6;44
53699;BME280;39591;53.952;27.612;2023-02-15T11:46:55;1024.1;;;6;44
53699;BME280;39591;53.952;27.612;2023-02-15T11:51:31;1024;;;6;43.9
53699;BME280;39591;53.952;27.612;2023-02-15T11:56:58;1024;;;6;43.6
53699;BME280;39591;53.952;27.612;2023-02-15T12:01:40;1024;;;6.1;43.5
53699;BME280;39591;53.952;27.612;2023-02-15T12:06:33;1023.9;;;6.2;43.2
53699;BME280;39591;53.952;27.612;2023-02-15T12:11:18;1023.9;;;6.3;43
53699;BME280;39591;53.952;27.612;2023-02-15T12:16:09;1023.9;;;6.3;42.9
53699;BME280;39591;53.952;27.612;2023-02-15T12:21:38;1023.9;;;6.4;42.2
53699;BME280;39591;53.952;27.612;2023-02-15T12:26:23;1023.8;;;6.4;42.4
53699;BME280;39591;53.952;27.612;2023-02-15T12:31:28;1023.8;;;6.4;42.2
53699;BME280;39591;53.952;27.612;2023-02-15T12:36:40;1023.8;;;6.3;41.7
53699;BME280;39591;53.952;27.612;2023-02-15T12:41:57;1023.7;;;6.2;41.6
53699;BME280;39591;53.952;27.612;2023-02-15T12:46:31;1023.7;;;6;42.1
53699;BME280;39591;53.952;27.612;2023-02-15T12:51:42;1023.6;;;6;42.3
53699;BME280;39591;53.952;27.612;2023-02-15T12:56:25;1023.6;;;6.1;42.5
53699;BME280;39591;53.952;27.612;2023-02-15T13:01:10;1023.6;;;6.1;42.5
53699;BME280;39591;53.952;27.612;2023-02-15T13:06:16;1023.6;;;6.1;42.5
53699;BME280;39591;53.952;27.612;2023-02-15T13:11:08;1023.6;;;6;42.4
53699;BME280;39591;53.952;27.612;2023-02-15T13:16:58;1023.6;;;5.9;42.5
53699;BME280;39591;53.952;27.612;2023-02-15T13:21:57;1023.5;;;5.9;42.6
53699;BME280;39591;53.952;27.612;2023-02-15T13:26:10;1023.5;;;5.9;42.7
53699;BME280;39591;53.952;27.612;2023-02-15T13:31:57;1023.5;;;5.9;42.7
53699;BME280;39591;53.952;27.612;2023-02-15T13:36:57;1023.5;;;5.8;42.8
53699;BME280;39591;53.952;27.612;2023-02-15T13:41:34;1023.6;;;5.8;43
53699;BME280;39591;53.952;27.612;2023-02-15T13:46:42;1023.6;;;5.8;43.1
53699;BME280;39591;53.952;27.612;2023-02-15T13:51:45;1023.6;;;5.9;43.3
53699;BME280;39591;53.952;27.612;2023-02-15T13:56:20;1023.6;;;5.9;43.6
53699;BME280;39591;53.952;27.612;2023-02-15T14:01:18;1023.6;;;5.9;43.4
53699;BME280;39591;53.952;27.612;2023-02-15T14:06:25;1023.6;;;5.8;43.5
53699;BME280;39591;53.952;27.612;2023-02-15T14:11:48;1023.6;;;5.8;43.6
53699;BME280;39591;53.952;27.612;2023-02-15T14:16:48;1023.5;;;5.7;43.8
53699;BME280;39591;53.952;27.612;2023-02-15T14:21:30;1023.5;;;5.7;44.1
53699;BME280;39591;53.952;27.612;2023-02-15T14:26:59;1023.5;;;5.6;44.4
53699;BME280;39591;53.952;27.612;2023-02-15T14:31:30;1023.5;;;5.5;44.6
53699;BME280;39591;53.952;27.612;2023-02-15T14:36:45;1023.5;;;5.5;44.9
53699;BME280;39591;53.952;27.612;2023-02-15T14:41:39;1023.4;;;5.4;45.3
53699;BME280;39591;53.952;27.612;2023-02-15T14:46:58;1023.4;;;5.4;45.7
53699;BME280;39591;53.952;27.612;2023-02-15T14:51:54;1023.4;;;5.3;46.1
53699;BME280;39591;53.952;27.612;2023-02-15T14:56:22;1023.3;;;5.2;46.4
53699;BME280;39591;53.952;27.612;2023-02-15T15:01:34;1023.3;;;5.2;46.7
53699;BME280;39591;53.952;27.612;2023-02-15T15:06:42;1023.3;;;5;47.3
53699;BME280;39591;53.952;27.612;2023-02-15T15:11:51;1023.3;;;4.9;47.8
53699;BME280;39591;53.952;27.612;2023-02-15T15:22:02;1023.3;;;4.9;48.4
53699;BME280;39591;53.952;27.612;2023-02-15T15:26:32;1023.3;;;4.8;48.8
53699;BME280;39591;53.952;27.612;2023-02-15T15:31:47;1023.3;;;4.7;49.1
53699;BME280;39591;53.952;27.612;2023-02-15T15:36:14;1023.3;;;4.7;49.2
53699;BME280;39591;53.952;27.612;2023-02-15T15:41:46;1023.3;;;4.7;49.4
53699;BME280;39591;53.952;27.612;2023-02-15T15:46:33;1023.3;;;4.6;49.9
53699;BME280;39591;53.952;27.612;2023-02-15T15:51:18;1023.3;;;4.5;50.2
53699;BME280;39591;53.952;27.612;2023-02-15T15:56:47;1023.2;;;4.4;50.4
53699;BME280;39591;53.952;27.612;2023-02-15T16:01:44;1023.2;;;4.3;50.7
53699;BME280;39591;53.952;27.612;2023-02-15T16:06:58;1023.2;;;4.3;51.2
53699;BME280;39591;53.952;27.612;2023-02-15T16:11:29;1023.2;;;4.2;51.6
53699;BME280;39591;53.952;27.612;2023-02-15T16:16:56;1023.2;;;4.1;51.9
53699;BME280;39591;53.952;27.612;2023-02-15T16:21:26;1023.2;;;4.1;52.3
53699;BME280;39591;53.952;27.612;2023-02-15T16:26:48;1023.2;;;4;52.7
53699;BME280;39591;53.952;27.612;2023-02-15T16:31:33;1023.2;;;4;53.2
53699;BME280;39591;53.952;27.612;2023-02-15T16:36:45;1023.2;;;3.9;53.9
53699;BME280;39591;53.952;27.612;2023-02-15T16:41:22;1023.2;;;3.8;54.2
53699;BME280;39591;53.952;27.612;2023-02-15T16:46:44;1023.3;;;3.8;54.7
53699;BME280;39591;53.952;27.612;2023-02-15T16:51:53;1023.3;;;3.7;55.5
53699;BME280;39591;53.952;27.612;2023-02-15T16:56:57;1023.3;;;3.6;55.8
53699;BME280;39591;53.952;27.612;2023-02-15T17:01:57;1023.3;;;3.6;56.4
53699;BME280;39591;53.952;27.612;2023-02-15T17:06:47;1023.3;;;3.4;57.1
53699;BME280;39591;53.952;27.612;2023-02-15T17:11:55;1023.3;;;3.3;57.6
53699;BME280;39591;53.952;27.612;2023-02-15T17:16:46;1023.3;;;3.2;58.3
53699;BME280;39591;53.952;27.612;2023-02-15T17:21:35;1023.4;;;3;59.1
53699;BME280;39591;53.952;27.612;2023-02-15T17:26:30;1023.4;;;2.9;59.7
53699;BME280;39591;53.952;27.612;2023-02-15T17:31:45;1023.3;;;2.8;60.4
53699;BME280;39591;53.952;27.612;2023-02-15T17:36:35;1023.4;;;2.7;60.9
53699;BME280;39591;53.952;27.612;2023-02-15T17:41:57;1023.3;;;2.6;61.3
53699;BME280;39591;53.952;27.612;2023-02-15T17:46:19;1023.3;;;2.6;61.6
53699;BME280;39591;53.952;27.612;2023-02-15T17:51:59;1023.3;;;2.4;62.1
53699;BME280;39591;53.952;27.612;2023-02-15T17:56:41;1023.3;;;2.4;62.3
53699;BME280;39591;53.952;27.612;2023-02-15T18:01:11;1023.3;;;2.4;62.7
53699;BME280;39591;53.952;27.612;2023-02-15T18:06:08;1023.3;;;2.3;63.1
53699;BME280;39591;53.952;27.612;2023-02-15T18:11:21;1023.3;;;2.2;63.3
53699;BME280;39591;53.952;27.612;2023-02-15T18:16:34;1023.2;;;2.2;63.7
53699;BME280;39591;53.952;27.612;2023-02-15T18:21:46;1023.2;;;2.1;64.4
53699;BME280;39591;53.952;27.612;2023-02-15T18:26:08;1023.2;;;2;64.6
53699;BME280;39591;53.952;27.612;2023-02-15T18:31:33;1023.2;;;2;64.5
53699;BME280;39591;53.952;27.612;2023-02-15T18:36:58;1023.2;;;2.1;64.7
53699;BME280;39591;53.952;27.612;2023-02-15T18:41:08;1023.1;;;2.1;64.9
53699;BME280;39591;53.952;27.612;2023-02-15T18:46:43;1023.1;;;2.1;65
53699;BME280;39591;53.952;27.612;2023-02-15T18:51:33;1023;;;2.3;64.8
53699;BME280;39591;53.952;27.612;2023-02-15T18:56:23;1023;;;2.2;64.8
53699;BME280;39591;53.952;27.612;2023-02-15T19:01:18;1023;;;2.3;64.6
53699;BME280;39591;53.952;27.612;2023-02-15T19:06:20;1023;;;2.4;64.4
53699;BME280;39591;53.952;27.612;2023-02-15T19:11:41;1023;;;2.5;64.1
53699;BME280;39591;53.952;27.612;2023-02-15T19:16:26;1023;;;2.6;63.7
53699;BME280;39591;53.952;27.612;2023-02-15T19:21:30;1022.9;;;2.8;63.4
53699;BME280;39591;53.952;27.612;2023-02-15T19:26:36;1022.9;;;2.9;63.3
53699;BME280;39591;53.952;27.612;2023-02-15T19:31:57;1022.8;;;2.9;63.3
53699;BME280;39591;53.952;27.612;2023-02-15T19:36:33;1022.8;;;3;63.2
53699;BME280;39591;53.952;27.612;2023-02-15T19:41:43;1022.8;;;3;63.1
53699;BME280;39591;53.952;27.612;2023-02-15T19:46:35;1022.9;;;3.1;63.3
53699;BME280;39591;53.952;27.612;2023-02-15T19:51:07;1022.8;;;3.2;63.3
53699;BME280;39591;53.952;27.612;2023-02-15T19:56:31;1022.8;;;3.2;63.3
53699;BME280;39591;53.952;27.612;2023-02-15T20:01:17;1022.8;;;3.2;63.5
53699;BME280;39591;53.952;27.612;2023-02-15T20:06:58;1022.7;;;3.3;63.5
53699;BME280;39591;53.952;27.612;2023-02-15T20:12:00;1022.7;;;3.2;63.6
53699;BME280;39591;53.952;27.612;2023-02-15T20:16:33;1022.7;;;3.3;63.7
53699;BME280;39591;53.952;27.612;2023-02-15T20:21:57;1022.7;;;3.2;63.8
53699;BME280;39591;53.952;27.612;2023-02-15T20:26:59;1022.7;;;3.2;63.9
53699;BME280;39591;53.952;27.612;2023-02-15T20:31:17;1022.6;;;3.2;64.1
53699;BME280;39591;53.952;27.612;2023-02-15T20:36:09;1022.6;;;3.1;64
53699;BME280;39591;53.952;27.612;2023-02-15T20:41:55;1022.6;;;3.1;64.1
53699;BME280;39591;53.952;27.612;2023-02-15T20:46:07;1022.6;;;3;64.5
53699;BME280;39591;53.952;27.612;2023-02-15T20:51:35;1022.6;;;2.8;64.8
53699;BME280;39591;53.952;27.612;2023-02-15T20:56:46;1022.6;;;2.7;65.1
53699;BME280;39591;53.952;27.612;2023-02-15T21:01:41;1022.6;;;2.7;65.5
53699;BME280;39591;53.952;27.612;2023-02-15T21:06:55;1022.6;;;2.6;65.9
53699;BME280;39591;53.952;27.612;2023-02-15T21:11:33;1022.5;;;2.5;66.3
53699;BME280;39591;53.952;27.612;2023-02-15T21:16:59;1022.5;;;2.5;66.6
53699;BME280;39591;53.952;27.612;2023-02-15T21:21:22;1022.5;;;2.5;66.9
53699;BME280;39591;53.952;27.612;2023-02-15T21:26:31;1022.4;;;2.5;67
53699;BME280;39591;53.952;27.612;2023-02-15T21:31:30;1022.4;;;2.4;67.3
53699;BME280;39591;53.952;27.612;2023-02-15T21:36:33;1022.4;;;2.4;67.4
53699;BME280;39591;53.952;27.612;2023-02-15T21:41:09;1022.3;;;2.4;67.7
53699;BME280;39591;53.952;27.612;2023-02-15T21:46:33;1022.3;;;2.5;67.6
53699;BME280;39591;53.952;27.612;2023-02-15T21:51:41;1022.3;;;2.5;67.6
53699;BME280;39591;53.952;27.612;2023-02-15T21:56:46;1022.3;;;2.5;67.7
53699;BME280;39591;53.952;27.612;2023-02-15T22:01:43;1022.2;;;2.5;68
53699;BME280;39591;53.952;27.612;2023-02-15T22:06:08;1022.2;;;2.4;68.2
53699;BME280;39591;53.952;27.612;2023-02-15T22:11:55;1022.1;;;2.4;68.5
53699;BME280;39591;53.952;27.612;2023-02-15T22:16:10;1022.1;;;2.4;68.5
53699;BME280;39591;53.952;27.612;2023-02-15T22:21:43;1022.1;;;2.5;68.3
53699;BME280;39591;53.952;27.612;2023-02-15T22:26:47;1022.1;;;2.5;68.4
53699;BME280;39591;53.952;27.612;2023-02-15T22:31:45;1022;;;2.4;68.4
53699;BME280;39591;53.952;27.612;2023-02-15T22:36:43;1022;;;2.4;68.6
53699;BME280;39591;53.952;27.612;2023-02-15T22:41:43;1022;;;2.4;68.5
53699;BME280;39591;53.952;27.612;2023-02-15T22:46:20;1022;;;2.4;68.6
53699;BME280;39591;53.952;27.612;2023-02-15T22:51:59;1022;;;2.4;68.5
53699;BME280;39591;53.952;27.612;2023-02-15T22:56:59;1021.9;;;2.5;68.5
53699;BME280;39591;53.952;27.612;2023-02-15T23:01:21;1021.9;;;2.5;68.5
53699;BME280;39591;53.952;27.612;2023-02-15T23:06:55;1021.9;;;2.4;68.6
53699;BME280;39591;53.952;27.612;2023-02-15T23:11:07;1021.8;;;2.4;68.7
53699;BME280;39591;53.952;27.612;2023-02-15T23:16:43;1021.9;;;2.4;68.7
53699;BME280;39591;53.952;27.612;2023-02-15T23:21:22;1021.8;;;2.3;68.8
53699;BME280;39591;53.952;27.612;2023-02-15T23:26:46;1021.7;;;2.3;68.9
53699;BME280;39591;53.952;27.612;2023-02-15T23:31:33;1021.7;;;2.3;68.7
53699;BME280;39591;53.952;27.612;2023-02-15T23:36:57;1021.7;;;2.4;68.5
53699;BME280;39591;53.952;27.612;2023-02-15T23:41:21;1021.6;;;2.5;68.5
53699;BME280;39591;53.952;27.612;2023-02-15T23:46:57;1021.5;;;2.6;68.2
53699;BME280;39591;53.952;27.612;2023-02-15T23:51:47;1021.5;;;2.7;68
53699;BME280;39591;53.952;27.612;2023-02-15T23:56:09;1021.4;;;2.7;67.9
